sensor_id;sensor_type;location;lat;lon;timestamp;P1;durP1;ratioP1;P2;durP2;ratioP2
10661;SDS011;5379;51.034;7.006;2023-02-28T00:01:34;2.37;;;1.50;;
10661;SDS011;5379;51.034;7.006;2023-02-28T00:04:01;2.07;;;1.80;;
10661;SDS011;5379;51.034;7.006;2023-02-28T00:06:30;1.73;;;1.63;;
10661;SDS011;5379;51.034;7.006;2023-02-28T00:08:57;1.83;;;1.73;;
10661;SDS011;5379;51.034;7.006;2023-02-28T00:11:24;2.60;;;2.07;;
10661;SDS011;5379;51.034;7.006;2023-02-28T00:13:51;1.70;;;1.60;;
10661;SDS011;5379;51.034;7.006;2023-02-28T00:16:18;1.70;;;1.50;;
10661;SDS011;5379;51.034;7.006;2023-02-28T00:18:47;1.50;;;1.50;;
10661;SDS011;5379;51.034;7.006;2023-02-28T00:21:15;1.83;;;1.50;;
10661;SDS011;5379;51.034;7.006;2023-02-28T00:23:44;1.70;;;1.60;;
10661;SDS011;5379;51.034;7.006;2023-02-28T00:26:11;1.90;;;1.70;;
10661;SDS011;5379;51.034;7.006;2023-02-28T00:28:38;1.40;;;1.40;;
10661;SDS011;5379;51.034;7.006;2023-02-28T00:31:05;6.83;;;2.00;;
10661;SDS011;5379;51.034;7.006;2023-02-28T00:33:32;1.87;;;1.77;;
10661;SDS011;5379;51.034;7.006;2023-02-28T00:36:06;3.17;;;2.13;;
10661;SDS011;5379;51.034;7.006;2023-02-28T00:38:34;2.17;;;1.97;;
10661;SDS011;5379;51.034;7.006;2023-02-28T00:41:03;5.00;;;1.70;;
10661;SDS011;5379;51.034;7.006;2023-02-28T00:43:31;2.30;;;2.10;;
10661;SDS011;5379;51.034;7.006;2023-02-28T00:45:59;1.23;;;1.23;;
10661;SDS011;5379;51.034;7.006;2023-02-28T00:48:26;2.13;;;2.00;;
10661;SDS011;5379;51.034;7.006;2023-02-28T00:50:53;2.03;;;1.70;;
10661;SDS011;5379;51.034;7.006;2023-02-28T00:53:20;1.60;;;1.50;;
10661;SDS011;5379;51.034;7.006;2023-02-28T00:55:48;1.87;;;1.77;;
10661;SDS011;5379;51.034;7.006;2023-02-28T00:58:16;1.90;;;1.80;;
10661;SDS011;5379;51.034;7.006;2023-02-28T05:31:51;3.63;;;2.30;;
10661;SDS011;5379;51.034;7.006;2023-02-28T05:34:18;1.50;;;1.50;;
10661;SDS011;5379;51.034;7.006;2023-02-28T05:36:45;1.67;;;1.60;;
10661;SDS011;5379;51.034;7.006;2023-02-28T05:39:12;6.63;;;2.30;;
10661;SDS011;5379;51.034;7.006;2023-02-28T05:41:40;1.40;;;1.40;;
10661;SDS011;5379;51.034;7.006;2023-02-28T05:44:07;2.13;;;1.97;;
10661;SDS011;5379;51.034;7.006;2023-02-28T05:46:34;1.83;;;1.53;;
10661;SDS011;5379;51.034;7.006;2023-02-28T05:49:02;1.77;;;1.60;;
10661;SDS011;5379;51.034;7.006;2023-02-28T05:51:29;1.73;;;1.63;;
10661;SDS011;5379;51.034;7.006;2023-02-28T05:53:58;2.10;;;1.90;;
10661;SDS011;5379;51.034;7.006;2023-02-28T05:56:26;2.30;;;1.97;;
10661;SDS011;5379;51.034;7.006;2023-02-28T05:58:53;1.80;;;1.70;;
10661;SDS011;5379;51.034;7.006;2023-02-28T06:01:33;2.17;;;1.70;;
10661;SDS011;5379;51.034;7.006;2023-02-28T06:04:03;2.40;;;1.70;;
10661;SDS011;5379;51.034;7.006;2023-02-28T06:06:32;3.97;;;2.20;;
10661;SDS011;5379;51.034;7.006;2023-02-28T06:09:01;3.67;;;2.00;;
10661;SDS011;5379;51.034;7.006;2023-02-28T06:11:27;7.73;;;2.23;;
10661;SDS011;5379;51.034;7.006;2023-02-28T06:13:54;4.27;;;2.10;;
10661;SDS011;5379;51.034;7.006;2023-02-28T06:16:22;3.03;;;2.03;;
10661;SDS011;5379;51.034;7.006;2023-02-28T06:18:49;6.93;;;2.03;;
10661;SDS011;5379;51.034;7.006;2023-02-28T06:21:18;4.33;;;2.20;;
10661;SDS011;5379;51.034;7.006;2023-02-28T06:23:45;3.80;;;2.20;;
10661;SDS011;5379;51.034;7.006;2023-02-28T06:26:12;3.73;;;2.27;;
10661;SDS011;5379;51.034;7.006;2023-02-28T06:28:39;2.53;;;2.30;;
10661;SDS011;5379;51.034;7.006;2023-02-28T06:31:07;2.30;;;2.10;;
10661;SDS011;5379;51.034;7.006;2023-02-28T06:33:34;2.10;;;2.00;;
10661;SDS011;5379;51.034;7.006;2023-02-28T06:36:01;3.30;;;2.13;;
10661;SDS011;5379;51.034;7.006;2023-02-28T06:38:30;2.40;;;2.20;;
10661;SDS011;5379;51.034;7.006;2023-02-28T06:40:58;2.43;;;2.13;;
10661;SDS011;5379;51.034;7.006;2023-02-28T06:43:27;8.23;;;2.03;;
10661;SDS011;5379;51.034;7.006;2023-02-28T06:45:55;2.50;;;2.30;;
10661;SDS011;5379;51.034;7.006;2023-02-28T06:48:24;3.30;;;2.30;;
10661;SDS011;5379;51.034;7.006;2023-02-28T06:50:52;2.40;;;2.17;;
10661;SDS011;5379;51.034;7.006;2023-02-28T06:53:28;6.63;;;2.33;;
10661;SDS011;5379;51.034;7.006;2023-02-28T06:55:56;3.37;;;2.13;;
10661;SDS011;5379;51.034;7.006;2023-02-28T06:58:23;2.57;;;2.23;;
10661;SDS011;5379;51.034;7.006;2023-02-28T07:00:50;3.30;;;2.40;;
10661;SDS011;5379;51.034;7.006;2023-02-28T07:03:18;4.93;;;2.13;;
10661;SDS011;5379;51.034;7.006;2023-02-28T07:05:45;1.87;;;1.67;;
10661;SDS011;5379;51.034;7.006;2023-02-28T07:08:12;1.93;;;1.80;;
10661;SDS011;5379;51.034;7.006;2023-02-28T07:10:39;2.43;;;2.23;;
10661;SDS011;5379;51.034;7.006;2023-02-28T07:13:08;3.00;;;2.23;;
10661;SDS011;5379;51.034;7.006;2023-02-28T07:15:36;1.97;;;1.80;;
10661;SDS011;5379;51.034;7.006;2023-02-28T07:18:04;1.40;;;1.40;;
10661;SDS011;5379;51.034;7.006;2023-02-28T07:20:31;4.10;;;1.93;;
10661;SDS011;5379;51.034;7.006;2023-02-28T07:22:58;7.40;;;1.87;;
10661;SDS011;5379;51.034;7.006;2023-02-28T07:25:25;4.63;;;1.90;;
10661;SDS011;5379;51.034;7.006;2023-02-28T07:27:53;1.90;;;1.80;;
10661;SDS011;5379;51.034;7.006;2023-02-28T07:30:22;1.80;;;1.70;;
10661;SDS011;5379;51.034;7.006;2023-02-28T07:32:49;1.37;;;1.37;;
10661;SDS011;5379;51.034;7.006;2023-02-28T07:35:16;1.57;;;1.50;;
10661;SDS011;5379;51.034;7.006;2023-02-28T07:37:44;1.97;;;1.63;;
10661;SDS011;5379;51.034;7.006;2023-02-28T07:40:12;4.90;;;2.13;;
10661;SDS011;5379;51.034;7.006;2023-02-28T07:42:40;1.67;;;1.60;;
10661;SDS011;5379;51.034;7.006;2023-02-28T07:45:08;4.43;;;1.90;;
10661;SDS011;5379;51.034;7.006;2023-02-28T07:47:38;1.70;;;1.60;;
10661;SDS011;5379;51.034;7.006;2023-02-28T07:50:05;2.33;;;1.90;;
10661;SDS011;5379;51.034;7.006;2023-02-28T07:52:34;3.77;;;2.03;;
10661;SDS011;5379;51.034;7.006;2023-02-28T07:55:02;1.50;;;1.40;;
10661;SDS011;5379;51.034;7.006;2023-02-28T07:57:29;1.13;;;1.13;;
10661;SDS011;5379;51.034;7.006;2023-02-28T07:59:57;1.47;;;1.37;;
10661;SDS011;5379;51.034;7.006;2023-02-28T08:02:24;1.40;;;1.40;;
10661;SDS011;5379;51.034;7.006;2023-02-28T08:04:52;3.57;;;1.67;;
10661;SDS011;5379;51.034;7.006;2023-02-28T08:07:19;4.13;;;1.70;;
10661;SDS011;5379;51.034;7.006;2023-02-28T08:09:46;6.97;;;1.77;;
10661;SDS011;5379;51.034;7.006;2023-02-28T08:12:13;1.70;;;1.60;;
10661;SDS011;5379;51.034;7.006;2023-02-28T08:14:40;1.90;;;1.73;;
10661;SDS011;5379;51.034;7.006;2023-02-28T08:17:07;1.80;;;1.20;;
10661;SDS011;5379;51.034;7.006;2023-02-28T08:19:35;1.60;;;1.50;;
10661;SDS011;5379;51.034;7.006;2023-02-28T08:22:03;1.63;;;1.53;;
10661;SDS011;5379;51.034;7.006;2023-02-28T08:24:30;1.50;;;1.40;;
10661;SDS011;5379;51.034;7.006;2023-02-28T08:26:58;1.93;;;1.83;;
10661;SDS011;5379;51.034;7.006;2023-02-28T08:29:25;1.03;;;1.03;;
10661;SDS011;5379;51.034;7.006;2023-02-28T08:31:52;1.53;;;1.43;;
10661;SDS011;5379;51.034;7.006;2023-02-28T08:34:19;1.40;;;1.40;;
10661;SDS011;5379;51.034;7.006;2023-02-28T08:36:46;1.30;;;1.30;;
10661;SDS011;5379;51.034;7.006;2023-02-28T08:39:14;1.00;;;1.00;;
10661;SDS011;5379;51.034;7.006;2023-02-28T08:41:41;1.23;;;1.23;;
10661;SDS011;5379;51.034;7.006;2023-02-28T08:44:09;1.43;;;1.10;;
10661;SDS011;5379;51.034;7.006;2023-02-28T08:46:36;3.60;;;1.47;;
10661;SDS011;5379;51.034;7.006;2023-02-28T08:49:03;1.67;;;1.57;;
10661;SDS011;5379;51.034;7.006;2023-02-28T08:51:32;1.47;;;1.37;;
10661;SDS011;5379;51.034;7.006;2023-02-28T08:53:59;2.23;;;1.37;;
10661;SDS011;5379;51.034;7.006;2023-02-28T08:56:28;1.30;;;1.20;;
10661;SDS011;5379;51.034;7.006;2023-02-28T08:58:56;1.20;;;1.13;;
10661;SDS011;5379;51.034;7.006;2023-02-28T09:01:23;2.03;;;1.40;;
10661;SDS011;5379;51.034;7.006;2023-02-28T09:03:53;1.43;;;1.33;;
10661;SDS011;5379;51.034;7.006;2023-02-28T09:06:21;1.07;;;1.07;;
10661;SDS011;5379;51.034;7.006;2023-02-28T09:08:50;1.23;;;1.13;;
10661;SDS011;5379;51.034;7.006;2023-02-28T09:11:17;2.10;;;1.40;;
10661;SDS011;5379;51.034;7.006;2023-02-28T09:13:46;2.40;;;1.50;;
10661;SDS011;5379;51.034;7.006;2023-02-28T09:16:14;1.60;;;1.50;;
10661;SDS011;5379;51.034;7.006;2023-02-28T09:18:41;1.20;;;1.20;;
10661;SDS011;5379;51.034;7.006;2023-02-28T09:21:10;3.17;;;1.80;;
10661;SDS011;5379;51.034;7.006;2023-02-28T09:23:40;1.37;;;1.37;;
10661;SDS011;5379;51.034;7.006;2023-02-28T09:26:07;1.57;;;1.50;;
10661;SDS011;5379;51.034;7.006;2023-02-28T09:28:39;1.60;;;1.50;;
10661;SDS011;5379;51.034;7.006;2023-02-28T09:31:10;1.17;;;1.10;;
10661;SDS011;5379;51.034;7.006;2023-02-28T09:33:39;0.97;;;0.97;;
10661;SDS011;5379;51.034;7.006;2023-02-28T09:36:06;1.70;;;1.60;;
10661;SDS011;5379;51.034;7.006;2023-02-28T09:38:33;1.03;;;1.03;;
10661;SDS011;5379;51.034;7.006;2023-02-28T09:41:01;1.53;;;1.43;;
10661;SDS011;5379;51.034;7.006;2023-02-28T09:43:32;1.53;;;1.43;;
10661;SDS011;5379;51.034;7.006;2023-02-28T09:46:05;2.27;;;1.63;;
10661;SDS011;5379;51.034;7.006;2023-02-28T09:48:41;10.07;;;1.70;;
10661;SDS011;5379;51.034;7.006;2023-02-28T09:51:14;1.53;;;1.40;;
10661;SDS011;5379;51.034;7.006;2023-02-28T09:53:53;2.23;;;1.63;;
10661;SDS011;5379;51.034;7.006;2023-02-28T09:56:20;1.57;;;1.47;;
10661;SDS011;5379;51.034;7.006;2023-02-28T09:58:53;1.73;;;1.63;;
10661;SDS011;5379;51.034;7.006;2023-02-28T10:01:25;1.60;;;1.20;;
10661;SDS011;5379;51.034;7.006;2023-02-28T10:03:56;2.20;;;1.60;;
10661;SDS011;5379;51.034;7.006;2023-02-28T10:06:28;1.43;;;1.33;;
10661;SDS011;5379;51.034;7.006;2023-02-28T10:09:00;1.73;;;1.60;;
10661;SDS011;5379;51.034;7.006;2023-02-28T10:11:29;1.50;;;1.40;;
10661;SDS011;5379;51.034;7.006;2023-02-28T10:14:00;0.93;;;0.93;;
10661;SDS011;5379;51.034;7.006;2023-02-28T10:16:33;1.33;;;1.10;;
10661;SDS011;5379;51.034;7.006;2023-02-28T10:19:03;1.87;;;1.50;;
10661;SDS011;5379;51.034;7.006;2023-02-28T10:21:35;1.47;;;1.37;;
10661;SDS011;5379;51.034;7.006;2023-02-28T10:24:20;1.23;;;1.13;;
10661;SDS011;5379;51.034;7.006;2023-02-28T10:26:52;1.10;;;1.10;;
10661;SDS011;5379;51.034;7.006;2023-02-28T10:29:25;1.37;;;1.27;;
10661;SDS011;5379;51.034;7.006;2023-02-28T10:31:54;1.63;;;1.40;;
10661;SDS011;5379;51.034;7.006;2023-02-28T10:34:21;1.63;;;1.63;;
10661;SDS011;5379;51.034;7.006;2023-02-28T10:36:48;2.97;;;1.93;;
10661;SDS011;5379;51.034;7.006;2023-02-28T10:39:35;6.03;;;1.53;;
10661;SDS011;5379;51.034;7.006;2023-02-28T10:42:05;1.40;;;1.23;;
10661;SDS011;5379;51.034;7.006;2023-02-28T10:44:46;0.87;;;0.87;;
10661;SDS011;5379;51.034;7.006;2023-02-28T10:47:15;4.03;;;1.37;;
10661;SDS011;5379;51.034;7.006;2023-02-28T10:49:47;0.90;;;0.90;;
10661;SDS011;5379;51.034;7.006;2023-02-28T10:52:31;1.37;;;1.27;;
10661;SDS011;5379;51.034;7.006;2023-02-28T10:55:16;2.03;;;1.40;;
10661;SDS011;5379;51.034;7.006;2023-02-28T10:57:47;1.70;;;1.60;;
10661;SDS011;5379;51.034;7.006;2023-02-28T11:00:15;1.23;;;1.17;;
10661;SDS011;5379;51.034;7.006;2023-02-28T11:02:47;1.50;;;1.40;;
10661;SDS011;5379;51.034;7.006;2023-02-28T11:05:22;1.57;;;1.47;;
10661;SDS011;5379;51.034;7.006;2023-02-28T11:07:52;5.50;;;1.40;;
10661;SDS011;5379;51.034;7.006;2023-02-28T11:10:21;1.60;;;1.33;;
10661;SDS011;5379;51.034;7.006;2023-02-28T11:12:54;2.00;;;1.40;;
10661;SDS011;5379;51.034;7.006;2023-02-28T11:15:23;1.20;;;1.20;;
10661;SDS011;5379;51.034;7.006;2023-02-28T11:17:57;1.67;;;1.57;;
10661;SDS011;5379;51.034;7.006;2023-02-28T11:20:26;1.73;;;1.17;;
10661;SDS011;5379;51.034;7.006;2023-02-28T11:22:56;1.30;;;1.30;;
10661;SDS011;5379;51.034;7.006;2023-02-28T11:25:24;1.90;;;1.53;;
10661;SDS011;5379;51.034;7.006;2023-02-28T11:27:54;6.80;;;1.90;;
10661;SDS011;5379;51.034;7.006;2023-02-28T11:30:23;1.50;;;1.50;;
10661;SDS011;5379;51.034;7.006;2023-02-28T11:33:00;1.37;;;0.93;;
10661;SDS011;5379;51.034;7.006;2023-02-28T11:35:45;1.47;;;1.30;;
10661;SDS011;5379;51.034;7.006;2023-02-28T11:38:15;1.40;;;1.40;;
10661;SDS011;5379;51.034;7.006;2023-02-28T11:40:43;1.70;;;1.60;;
10661;SDS011;5379;51.034;7.006;2023-02-28T11:43:23;7.10;;;1.30;;
10661;SDS011;5379;51.034;7.006;2023-02-28T11:46:05;3.03;;;1.63;;
10661;SDS011;5379;51.034;7.006;2023-02-28T11:48:58;4.50;;;1.67;;
10661;SDS011;5379;51.034;7.006;2023-02-28T11:52:10;2.17;;;1.40;;
10661;SDS011;5379;51.034;7.006;2023-02-28T11:55:02;1.60;;;1.50;;
10661;SDS011;5379;51.034;7.006;2023-02-28T12:04:36;1.70;;;1.57;;
10661;SDS011;5379;51.034;7.006;2023-02-28T12:07:43;1.53;;;1.37;;
10661;SDS011;5379;51.034;7.006;2023-02-28T12:10:22;0.90;;;0.90;;
10661;SDS011;5379;51.034;7.006;2023-02-28T12:12:55;2.40;;;1.93;;
10661;SDS011;5379;51.034;7.006;2023-02-28T12:15:46;1.77;;;1.67;;
10661;SDS011;5379;51.034;7.006;2023-02-28T12:18:33;1.47;;;1.30;;
10661;SDS011;5379;51.034;7.006;2023-02-28T12:24:19;1.67;;;1.57;;
10661;SDS011;5379;51.034;7.006;2023-02-28T12:27:07;1.40;;;1.30;;
10661;SDS011;5379;51.034;7.006;2023-02-28T12:29:39;13.10;;;1.40;;
10661;SDS011;5379;51.034;7.006;2023-02-28T12:32:56;4.87;;;1.80;;
10661;SDS011;5379;51.034;7.006;2023-02-28T12:35:37;2.10;;;2.00;;
10661;SDS011;5379;51.034;7.006;2023-02-28T12:38:16;2.93;;;1.67;;
10661;SDS011;5379;51.034;7.006;2023-02-28T12:40:47;3.53;;;1.83;;
10661;SDS011;5379;51.034;7.006;2023-02-28T12:43:19;1.13;;;1.13;;
10661;SDS011;5379;51.034;7.006;2023-02-28T12:45:49;2.27;;;1.57;;
10661;SDS011;5379;51.034;7.006;2023-02-28T12:48:20;1.70;;;1.53;;
10661;SDS011;5379;51.034;7.006;2023-02-28T12:51:04;3.23;;;1.93;;
10661;SDS011;5379;51.034;7.006;2023-02-28T12:53:41;2.10;;;1.90;;
10661;SDS011;5379;51.034;7.006;2023-02-28T12:56:30;2.07;;;1.70;;
10661;SDS011;5379;51.034;7.006;2023-02-28T12:59:10;1.97;;;1.77;;
10661;SDS011;5379;51.034;7.006;2023-02-28T13:01:48;1.93;;;1.80;;
10661;SDS011;5379;51.034;7.006;2023-02-28T13:04:43;1.80;;;1.70;;
10661;SDS011;5379;51.034;7.006;2023-02-28T13:07:34;1.60;;;1.50;;
10661;SDS011;5379;51.034;7.006;2023-02-28T13:13:34;1.67;;;1.57;;
10661;SDS011;5379;51.034;7.006;2023-02-28T13:16:04;2.00;;;1.90;;
10661;SDS011;5379;51.034;7.006;2023-02-28T13:18:35;1.60;;;1.50;;
10661;SDS011;5379;51.034;7.006;2023-02-28T13:21:04;1.30;;;1.30;;
10661;SDS011;5379;51.034;7.006;2023-02-28T13:23:42;1.70;;;1.60;;
10661;SDS011;5379;51.034;7.006;2023-02-28T13:29:50;2.20;;;1.83;;
10661;SDS011;5379;51.034;7.006;2023-02-28T13:38:09;1.67;;;1.57;;
10661;SDS011;5379;51.034;7.006;2023-02-28T13:40:50;1.37;;;1.37;;
10661;SDS011;5379;51.034;7.006;2023-02-28T13:43:19;1.60;;;1.50;;
10661;SDS011;5379;51.034;7.006;2023-02-28T13:49:19;1.80;;;1.70;;
10661;SDS011;5379;51.034;7.006;2023-02-28T13:51:52;2.73;;;1.47;;
10661;SDS011;5379;51.034;7.006;2023-02-28T13:54:26;2.57;;;1.70;;
10661;SDS011;5379;51.034;7.006;2023-02-28T13:57:10;1.60;;;1.50;;
10661;SDS011;5379;51.034;7.006;2023-02-28T13:59:50;2.00;;;1.90;;
10661;SDS011;5379;51.034;7.006;2023-02-28T14:02:41;1.83;;;1.73;;
10661;SDS011;5379;51.034;7.006;2023-02-28T14:05:35;2.30;;;2.10;;
10661;SDS011;5379;51.034;7.006;2023-02-28T14:08:14;2.00;;;1.90;;
10661;SDS011;5379;51.034;7.006;2023-02-28T14:11:04;1.70;;;1.60;;
10661;SDS011;5379;51.034;7.006;2023-02-28T14:14:02;2.97;;;2.10;;
10661;SDS011;5379;51.034;7.006;2023-02-28T14:16:51;1.70;;;1.60;;
10661;SDS011;5379;51.034;7.006;2023-02-28T14:19:19;1.57;;;1.57;;
10661;SDS011;5379;51.034;7.006;2023-02-28T14:21:53;1.63;;;1.57;;
10661;SDS011;5379;51.034;7.006;2023-02-28T14:24:49;2.77;;;2.57;;
10661;SDS011;5379;51.034;7.006;2023-02-28T14:27:35;1.70;;;1.60;;
10661;SDS011;5379;51.034;7.006;2023-02-28T14:30:12;2.00;;;1.90;;
10661;SDS011;5379;51.034;7.006;2023-02-28T14:32:54;2.40;;;2.17;;
10661;SDS011;5379;51.034;7.006;2023-02-28T14:35:40;2.63;;;2.23;;
10661;SDS011;5379;51.034;7.006;2023-02-28T14:38:19;2.03;;;1.90;;
10661;SDS011;5379;51.034;7.006;2023-02-28T14:40:49;1.70;;;1.60;;
10661;SDS011;5379;51.034;7.006;2023-02-28T14:43:29;2.33;;;1.50;;
10661;SDS011;5379;51.034;7.006;2023-02-28T14:52:29;4.00;;;2.10;;
10661;SDS011;5379;51.034;7.006;2023-02-28T14:54:58;2.23;;;1.40;;
10661;SDS011;5379;51.034;7.006;2023-02-28T14:57:27;2.20;;;2.10;;
10661;SDS011;5379;51.034;7.006;2023-02-28T14:59:57;2.30;;;2.20;;
10661;SDS011;5379;51.034;7.006;2023-02-28T15:02:29;4.83;;;2.27;;
10661;SDS011;5379;51.034;7.006;2023-02-28T15:04:59;1.63;;;1.53;;
10661;SDS011;5379;51.034;7.006;2023-02-28T15:07:42;2.83;;;1.93;;
10661;SDS011;5379;51.034;7.006;2023-02-28T15:10:11;1.53;;;1.43;;
10661;SDS011;5379;51.034;7.006;2023-02-28T15:12:44;2.03;;;1.83;;
10661;SDS011;5379;51.034;7.006;2023-02-28T15:15:17;1.63;;;1.50;;
10661;SDS011;5379;51.034;7.006;2023-02-28T15:17:46;2.10;;;1.73;;
10661;SDS011;5379;51.034;7.006;2023-02-28T15:20:19;1.83;;;1.73;;
10661;SDS011;5379;51.034;7.006;2023-02-28T15:22:47;2.10;;;2.00;;
10661;SDS011;5379;51.034;7.006;2023-02-28T15:25:18;1.97;;;1.87;;
10661;SDS011;5379;51.034;7.006;2023-02-28T15:27:48;1.93;;;1.83;;
10661;SDS011;5379;51.034;7.006;2023-02-28T15:30:24;5.90;;;4.40;;
10661;SDS011;5379;51.034;7.006;2023-02-28T15:33:03;3.17;;;1.60;;
10661;SDS011;5379;51.034;7.006;2023-02-28T15:35:34;2.40;;;2.17;;
10661;SDS011;5379;51.034;7.006;2023-02-28T15:38:02;1.63;;;1.40;;
10661;SDS011;5379;51.034;7.006;2023-02-28T15:40:40;2.13;;;1.90;;
10661;SDS011;5379;51.034;7.006;2023-02-28T15:43:13;1.60;;;1.50;;
10661;SDS011;5379;51.034;7.006;2023-02-28T15:45:45;2.30;;;2.20;;
10661;SDS011;5379;51.034;7.006;2023-02-28T15:48:16;1.80;;;1.70;;
10661;SDS011;5379;51.034;7.006;2023-02-28T15:50:48;1.73;;;1.63;;
10661;SDS011;5379;51.034;7.006;2023-02-28T15:53:18;1.80;;;1.70;;
10661;SDS011;5379;51.034;7.006;2023-02-28T15:55:52;3.30;;;1.80;;
10661;SDS011;5379;51.034;7.006;2023-02-28T15:58:22;2.10;;;1.90;;
10661;SDS011;5379;51.034;7.006;2023-02-28T16:01:00;12.23;;;1.70;;
10661;SDS011;5379;51.034;7.006;2023-02-28T16:03:35;4.70;;;1.90;;
10661;SDS011;5379;51.034;7.006;2023-02-28T16:09:08;2.97;;;2.17;;
10661;SDS011;5379;51.034;7.006;2023-02-28T16:11:38;1.60;;;1.57;;
10661;SDS011;5379;51.034;7.006;2023-02-28T16:14:17;1.60;;;1.50;;
10661;SDS011;5379;51.034;7.006;2023-02-28T16:16:48;2.30;;;2.10;;
10661;SDS011;5379;51.034;7.006;2023-02-28T16:19:19;2.13;;;2.03;;
10661;SDS011;5379;51.034;7.006;2023-02-28T16:21:48;2.60;;;2.07;;
10661;SDS011;5379;51.034;7.006;2023-02-28T16:24:16;2.03;;;1.90;;
10661;SDS011;5379;51.034;7.006;2023-02-28T16:26:45;2.03;;;1.90;;
10661;SDS011;5379;51.034;7.006;2023-02-28T16:29:14;2.87;;;2.60;;
10661;SDS011;5379;51.034;7.006;2023-02-28T16:31:45;1.90;;;1.80;;
10661;SDS011;5379;51.034;7.006;2023-02-28T16:34:12;2.00;;;1.90;;
10661;SDS011;5379;51.034;7.006;2023-02-28T16:36:39;2.00;;;1.90;;
10661;SDS011;5379;51.034;7.006;2023-02-28T16:39:07;3.83;;;2.10;;
10661;SDS011;5379;51.034;7.006;2023-02-28T16:41:34;5.00;;;2.27;;
10661;SDS011;5379;51.034;7.006;2023-02-28T16:44:01;2.07;;;1.97;;
10661;SDS011;5379;51.034;7.006;2023-02-28T16:46:35;1.80;;;1.70;;
10661;SDS011;5379;51.034;7.006;2023-02-28T16:49:02;1.70;;;1.60;;
10661;SDS011;5379;51.034;7.006;2023-02-28T16:51:29;1.90;;;1.80;;
10661;SDS011;5379;51.034;7.006;2023-02-28T16:53:56;2.10;;;2.00;;
10661;SDS011;5379;51.034;7.006;2023-02-28T16:56:25;5.70;;;2.70;;
10661;SDS011;5379;51.034;7.006;2023-02-28T16:58:58;2.10;;;1.90;;
10661;SDS011;5379;51.034;7.006;2023-02-28T17:01:45;1.60;;;1.60;;
10661;SDS011;5379;51.034;7.006;2023-02-28T17:04:19;2.20;;;2.00;;
10661;SDS011;5379;51.034;7.006;2023-02-28T17:06:46;2.23;;;2.03;;
10661;SDS011;5379;51.034;7.006;2023-02-28T17:09:14;2.03;;;1.93;;
10661;SDS011;5379;51.034;7.006;2023-02-28T17:11:44;3.20;;;2.90;;
10661;SDS011;5379;51.034;7.006;2023-02-28T17:14:11;2.90;;;2.60;;
10661;SDS011;5379;51.034;7.006;2023-02-28T17:16:38;3.93;;;2.50;;
10661;SDS011;5379;51.034;7.006;2023-02-28T17:19:09;2.60;;;2.40;;
10661;SDS011;5379;51.034;7.006;2023-02-28T17:21:38;2.23;;;2.10;;
10661;SDS011;5379;51.034;7.006;2023-02-28T17:24:08;4.50;;;2.77;;
10661;SDS011;5379;51.034;7.006;2023-02-28T17:26:37;2.90;;;2.70;;
10661;SDS011;5379;51.034;7.006;2023-02-28T17:31:53;6.13;;;2.80;;
10661;SDS011;5379;51.034;7.006;2023-02-28T17:34:21;2.77;;;2.57;;
10661;SDS011;5379;51.034;7.006;2023-02-28T17:36:49;8.17;;;3.70;;
10661;SDS011;5379;51.034;7.006;2023-02-28T17:39:20;5.53;;;3.60;;
10661;SDS011;5379;51.034;7.006;2023-02-28T17:41:49;3.10;;;2.90;;
10661;SDS011;5379;51.034;7.006;2023-02-28T17:44:16;3.30;;;3.00;;
10661;SDS011;5379;51.034;7.006;2023-02-28T17:46:45;3.87;;;3.57;;
10661;SDS011;5379;51.034;7.006;2023-02-28T17:49:12;4.70;;;3.40;;
10661;SDS011;5379;51.034;7.006;2023-02-28T17:51:39;2.60;;;2.40;;
10661;SDS011;5379;51.034;7.006;2023-02-28T17:54:06;5.50;;;4.03;;
10661;SDS011;5379;51.034;7.006;2023-02-28T17:56:36;4.80;;;3.10;;
10661;SDS011;5379;51.034;7.006;2023-02-28T17:59:11;7.13;;;2.40;;
10661;SDS011;5379;51.034;7.006;2023-02-28T18:01:39;2.83;;;2.47;;
10661;SDS011;5379;51.034;7.006;2023-02-28T18:04:08;3.00;;;2.70;;
10661;SDS011;5379;51.034;7.006;2023-02-28T18:06:36;6.10;;;3.93;;
10661;SDS011;5379;51.034;7.006;2023-02-28T18:09:14;3.53;;;3.23;;
10661;SDS011;5379;51.034;7.006;2023-02-28T18:11:42;5.07;;;4.13;;
10661;SDS011;5379;51.034;7.006;2023-02-28T18:14:13;3.13;;;2.67;;
10661;SDS011;5379;51.034;7.006;2023-02-28T18:16:41;4.80;;;3.00;;
10661;SDS011;5379;51.034;7.006;2023-02-28T18:19:09;5.07;;;3.13;;
10661;SDS011;5379;51.034;7.006;2023-02-28T18:21:39;8.03;;;4.10;;
10661;SDS011;5379;51.034;7.006;2023-02-28T18:24:07;3.17;;;2.90;;
10661;SDS011;5379;51.034;7.006;2023-02-28T18:26:35;8.17;;;4.00;;
10661;SDS011;5379;51.034;7.006;2023-02-28T18:29:03;9.70;;;3.33;;
10661;SDS011;5379;51.034;7.006;2023-02-28T18:31:30;4.67;;;4.13;;
10661;SDS011;5379;51.034;7.006;2023-02-28T18:33:58;3.43;;;3.07;;
10661;SDS011;5379;51.034;7.006;2023-02-28T18:36:27;3.00;;;2.70;;
10661;SDS011;5379;51.034;7.006;2023-02-28T18:38:54;7.73;;;3.37;;
10661;SDS011;5379;51.034;7.006;2023-02-28T18:41:21;3.33;;;3.13;;
10661;SDS011;5379;51.034;7.006;2023-02-28T18:43:48;7.27;;;3.30;;
10661;SDS011;5379;51.034;7.006;2023-02-28T18:46:16;3.67;;;3.13;;
10661;SDS011;5379;51.034;7.006;2023-02-28T18:48:44;3.87;;;3.57;;
10661;SDS011;5379;51.034;7.006;2023-02-28T18:51:12;5.13;;;3.80;;
10661;SDS011;5379;51.034;7.006;2023-02-28T18:53:42;3.63;;;3.30;;
10661;SDS011;5379;51.034;7.006;2023-02-28T18:56:10;3.10;;;2.80;;
10661;SDS011;5379;51.034;7.006;2023-02-28T18:58:38;4.60;;;3.73;;
10661;SDS011;5379;51.034;7.006;2023-02-28T19:01:12;5.00;;;3.20;;
10661;SDS011;5379;51.034;7.006;2023-02-28T19:03:41;9.97;;;3.10;;
10661;SDS011;5379;51.034;7.006;2023-02-28T19:06:08;11.63;;;3.33;;
10661;SDS011;5379;51.034;7.006;2023-02-28T19:08:35;4.03;;;3.50;;
10661;SDS011;5379;51.034;7.006;2023-02-28T19:11:06;8.40;;;3.17;;
10661;SDS011;5379;51.034;7.006;2023-02-28T19:13:34;3.30;;;3.00;;
10661;SDS011;5379;51.034;7.006;2023-02-28T19:16:01;5.40;;;3.60;;
10661;SDS011;5379;51.034;7.006;2023-02-28T19:18:29;5.53;;;3.47;;
10661;SDS011;5379;51.034;7.006;2023-02-28T19:20:56;3.83;;;3.53;;
10661;SDS011;5379;51.034;7.006;2023-02-28T19:23:24;5.07;;;3.57;;
10661;SDS011;5379;51.034;7.006;2023-02-28T19:25:58;3.70;;;3.40;;
10661;SDS011;5379;51.034;7.006;2023-02-28T19:32:19;6.07;;;4.73;;
10661;SDS011;5379;51.034;7.006;2023-02-28T19:35:14;4.90;;;3.67;;
10661;SDS011;5379;51.034;7.006;2023-02-28T19:42:01;4.63;;;4.03;;
10661;SDS011;5379;51.034;7.006;2023-02-28T19:44:29;5.67;;;4.10;;
10661;SDS011;5379;51.034;7.006;2023-02-28T19:46:57;5.47;;;4.13;;
10661;SDS011;5379;51.034;7.006;2023-02-28T19:49:24;5.90;;;4.53;;
10661;SDS011;5379;51.034;7.006;2023-02-28T19:51:51;8.30;;;5.43;;
10661;SDS011;5379;51.034;7.006;2023-02-28T19:54:18;9.67;;;5.03;;
10661;SDS011;5379;51.034;7.006;2023-02-28T19:56:45;9.50;;;5.80;;
10661;SDS011;5379;51.034;7.006;2023-02-28T19:59:12;7.20;;;4.83;;
10661;SDS011;5379;51.034;7.006;2023-02-28T20:01:39;7.63;;;4.40;;
10661;SDS011;5379;51.034;7.006;2023-02-28T20:04:08;5.70;;;5.17;;
10661;SDS011;5379;51.034;7.006;2023-02-28T20:06:35;4.17;;;3.83;;
10661;SDS011;5379;51.034;7.006;2023-02-28T20:09:02;3.87;;;3.47;;
10661;SDS011;5379;51.034;7.006;2023-02-28T20:11:29;7.13;;;3.70;;
10661;SDS011;5379;51.034;7.006;2023-02-28T20:13:56;5.40;;;4.43;;
10661;SDS011;5379;51.034;7.006;2023-02-28T20:16:24;5.83;;;4.40;;
10661;SDS011;5379;51.034;7.006;2023-02-28T20:18:53;5.60;;;4.17;;
10661;SDS011;5379;51.034;7.006;2023-02-28T20:21:21;5.73;;;4.13;;
10661;SDS011;5379;51.034;7.006;2023-02-28T20:23:48;3.80;;;3.50;;
10661;SDS011;5379;51.034;7.006;2023-02-28T20:26:15;4.70;;;4.23;;
10661;SDS011;5379;51.034;7.006;2023-02-28T20:28:44;5.63;;;4.40;;
10661;SDS011;5379;51.034;7.006;2023-02-28T20:31:12;3.87;;;3.57;;
10661;SDS011;5379;51.034;7.006;2023-02-28T20:33:40;4.13;;;3.80;;
10661;SDS011;5379;51.034;7.006;2023-02-28T20:36:07;5.73;;;4.47;;
10661;SDS011;5379;51.034;7.006;2023-02-28T20:38:37;6.37;;;4.23;;
10661;SDS011;5379;51.034;7.006;2023-02-28T20:41:05;4.47;;;4.07;;
10661;SDS011;5379;51.034;7.006;2023-02-28T20:43:32;8.30;;;4.40;;